aviador You're here:

LEVC Decoded Metar

VALENCIA in SPAIN
Report Time2014-12-22 11:30:00
UTC Time2014-12-22 12:00:13
Flight Rules vfr VFR
WindCalm
Visibility9999 m
Phenomena:N/A
Clouds:N/A
Expected CloudBase > 2,800 ft AGL from Temp-Dew spread
CeilingNone
Temp16°C (ISA +1)
Dew Point09°C (63% RH)
AAT15.8°C
QNH1033 hPa
Density Alt-148 ft
Elevation203 ft
Report Wrong Elevation
Raw Report
LEVC 221130Z 00000KT CAVOK 16/09 Q1033 NOSIG=

Extra information for LEVC:More info

Metar Taf Metar & Taf Last 4 Metars F.Rules Stats Wind Profile Meteogram Temp Stats Airport Information Weather charts Add Link Nearby VenuesMetar ALERT Operation Metar Decoded Social comments

Webcam Valencia